sensor_id;sensor_type;location;lat;lon;timestamp;temperature;humidity
23683;DHT22;24897;53.514;10.482;2022-09-21T00:00:40;7.90;99.90
23683;DHT22;24897;53.514;10.482;2022-09-21T00:03:24;7.90;99.90
23683;DHT22;24897;53.514;10.482;2022-09-21T00:06:11;7.80;99.90
23683;DHT22;24897;53.514;10.482;2022-09-21T00:08:56;7.80;99.90
23683;DHT22;24897;53.514;10.482;2022-09-21T00:11:40;7.70;99.90
23683;DHT22;24897;53.514;10.482;2022-09-21T00:14:24;7.70;99.90
23683;DHT22;24897;53.514;10.482;2022-09-21T00:17:08;7.80;99.90
23683;DHT22;24897;53.514;10.482;2022-09-21T00:19:52;7.70;99.90
23683;DHT22;24897;53.514;10.482;2022-09-21T00:22:36;7.70;99.90
23683;DHT22;24897;53.514;10.482;2022-09-21T00:25:21;7.70;99.90
23683;DHT22;24897;53.514;10.482;2022-09-21T00:28:05;7.70;99.90
23683;DHT22;24897;53.514;10.482;2022-09-21T00:30:49;7.70;99.90
23683;DHT22;24897;53.514;10.482;2022-09-21T00:33:34;7.70;99.90
23683;DHT22;24897;53.514;10.482;2022-09-21T00:36:22;7.70;99.90
23683;DHT22;24897;53.514;10.482;2022-09-21T00:39:08;7.70;99.90
23683;DHT22;24897;53.514;10.482;2022-09-21T00:41:52;7.60;99.90
23683;DHT22;24897;53.514;10.482;2022-09-21T00:44:36;7.60;99.90
23683;DHT22;24897;53.514;10.482;2022-09-21T00:47:32;7.50;99.90
23683;DHT22;24897;53.514;10.482;2022-09-21T00:50:19;7.50;99.90
23683;DHT22;24897;53.514;10.482;2022-09-21T00:53:05;7.60;99.90
23683;DHT22;24897;53.514;10.482;2022-09-21T00:55:54;7.60;99.90
23683;DHT22;24897;53.514;10.482;2022-09-21T00:58:46;7.50;99.90
23683;DHT22;24897;53.514;10.482;2022-09-21T01:01:31;7.50;99.90
23683;DHT22;24897;53.514;10.482;2022-09-21T01:04:16;7.40;99.90
23683;DHT22;24897;53.514;10.482;2022-09-21T01:07:04;7.40;99.90
23683;DHT22;24897;53.514;10.482;2022-09-21T01:09:58;7.40;99.90
23683;DHT22;24897;53.514;10.482;2022-09-21T01:13:18;7.40;99.90
23683;DHT22;24897;53.514;10.482;2022-09-21T01:31:06;7.30;99.90
23683;DHT22;24897;53.514;10.482;2022-09-21T01:33:57;7.30;99.90
23683;DHT22;24897;53.514;10.482;2022-09-21T01:36:47;7.40;99.90
23683;DHT22;24897;53.514;10.482;2022-09-21T01:39:34;7.30;99.90
23683;DHT22;24897;53.514;10.482;2022-09-21T01:42:20;7.30;99.90
23683;DHT22;24897;53.514;10.482;2022-09-21T01:45:08;7.20;99.90
23683;DHT22;24897;53.514;10.482;2022-09-21T01:47:56;7.30;99.90
23683;DHT22;24897;53.514;10.482;2022-09-21T01:50:44;7.20;99.90
23683;DHT22;24897;53.514;10.482;2022-09-21T01:53:36;7.30;99.90
23683;DHT22;24897;53.514;10.482;2022-09-21T01:56:29;7.40;99.90
23683;DHT22;24897;53.514;10.482;2022-09-21T01:59:50;7.30;99.90
23683;DHT22;24897;53.514;10.482;2022-09-21T02:02:43;7.20;99.90
23683;DHT22;24897;53.514;10.482;2022-09-21T02:05:30;7.20;99.90
23683;DHT22;24897;53.514;10.482;2022-09-21T02:08:15;7.20;99.90
23683;DHT22;24897;53.514;10.482;2022-09-21T02:11:00;7.20;99.90
23683;DHT22;24897;53.514;10.482;2022-09-21T02:13:47;7.30;99.90
23683;DHT22;24897;53.514;10.482;2022-09-21T02:22:40;7.20;99.90
23683;DHT22;24897;53.514;10.482;2022-09-21T02:31:19;7.10;99.90
23683;DHT22;24897;53.514;10.482;2022-09-21T02:34:29;7.10;99.90
23683;DHT22;24897;53.514;10.482;2022-09-21T02:37:23;7.20;99.90
23683;DHT22;24897;53.514;10.482;2022-09-21T02:40:19;7.30;99.90
23683;DHT22;24897;53.514;10.482;2022-09-21T02:43:25;7.50;99.90
23683;DHT22;24897;53.514;10.482;2022-09-21T02:46:15;7.40;99.90
23683;DHT22;24897;53.514;10.482;2022-09-21T02:49:07;6.90;99.90
23683;DHT22;24897;53.514;10.482;2022-09-21T02:51:58;6.70;99.90
23683;DHT22;24897;53.514;10.482;2022-09-21T02:54:46;6.70;99.90
23683;DHT22;24897;53.514;10.482;2022-09-21T02:57:31;6.80;99.90
23683;DHT22;24897;53.514;10.482;2022-09-21T03:00:16;7.70;99.90
23683;DHT22;24897;53.514;10.482;2022-09-21T03:03:13;6.60;99.90
23683;DHT22;24897;53.514;10.482;2022-09-21T03:06:00;7.20;99.90
23683;DHT22;24897;53.514;10.482;2022-09-21T03:08:45;7.40;99.90
23683;DHT22;24897;53.514;10.482;2022-09-21T03:11:29;8.00;99.90
23683;DHT22;24897;53.514;10.482;2022-09-21T03:16:58;7.20;99.90
23683;DHT22;24897;53.514;10.482;2022-09-21T03:22:28;6.70;99.90
23683;DHT22;24897;53.514;10.482;2022-09-21T03:25:12;7.10;99.90
23683;DHT22;24897;53.514;10.482;2022-09-21T03:27:57;5.80;99.90
23683;DHT22;24897;53.514;10.482;2022-09-21T03:30:41;7.90;99.90
23683;DHT22;24897;53.514;10.482;2022-09-21T03:33:25;7.10;99.90
23683;DHT22;24897;53.514;10.482;2022-09-21T03:36:10;7.00;99.90
23683;DHT22;24897;53.514;10.482;2022-09-21T03:38:54;6.30;99.90
23683;DHT22;24897;53.514;10.482;2022-09-21T03:49:54;6.50;99.90
23683;DHT22;24897;53.514;10.482;2022-09-21T03:52:38;7.00;99.90
23683;DHT22;24897;53.514;10.482;2022-09-21T03:55:23;6.20;99.90
23683;DHT22;24897;53.514;10.482;2022-09-21T03:58:08;6.30;99.90
23683;DHT22;24897;53.514;10.482;2022-09-21T04:00:52;6.30;99.90
23683;DHT22;24897;53.514;10.482;2022-09-21T04:09:06;6.40;99.90
23683;DHT22;24897;53.514;10.482;2022-09-21T04:11:51;7.80;99.90
23683;DHT22;24897;53.514;10.482;2022-09-21T04:17:21;6.40;99.90
23683;DHT22;24897;53.514;10.482;2022-09-21T04:20:06;6.60;99.90
23683;DHT22;24897;53.514;10.482;2022-09-21T04:22:50;6.60;99.90
23683;DHT22;24897;53.514;10.482;2022-09-21T04:25:35;6.50;99.90
23683;DHT22;24897;53.514;10.482;2022-09-21T04:28:19;6.50;99.90
23683;DHT22;24897;53.514;10.482;2022-09-21T04:31:03;6.50;99.90
23683;DHT22;24897;53.514;10.482;2022-09-21T04:33:49;6.50;99.90
23683;DHT22;24897;53.514;10.482;2022-09-21T04:36:34;6.50;99.90
23683;DHT22;24897;53.514;10.482;2022-09-21T04:39:18;6.50;99.90
23683;DHT22;24897;53.514;10.482;2022-09-21T04:42:03;6.40;99.90
23683;DHT22;24897;53.514;10.482;2022-09-21T04:50:16;6.50;99.90
23683;DHT22;24897;53.514;10.482;2022-09-21T04:53:03;5.50;99.90
23683;DHT22;24897;53.514;10.482;2022-09-21T04:55:47;6.20;99.90
23683;DHT22;24897;53.514;10.482;2022-09-21T04:58:31;6.60;99.90
23683;DHT22;24897;53.514;10.482;2022-09-21T05:01:16;6.00;99.90
23683;DHT22;24897;53.514;10.482;2022-09-21T05:04:00;7.10;99.90
23683;DHT22;24897;53.514;10.482;2022-09-21T05:06:46;6.30;99.90
23683;DHT22;24897;53.514;10.482;2022-09-21T05:09:30;5.80;99.90
23683;DHT22;24897;53.514;10.482;2022-09-21T05:12:34;6.50;99.90
23683;DHT22;24897;53.514;10.482;2022-09-21T05:15:18;5.80;99.90
23683;DHT22;24897;53.514;10.482;2022-09-21T05:18:03;6.00;99.90
23683;DHT22;24897;53.514;10.482;2022-09-21T05:20:54;6.40;99.90
23683;DHT22;24897;53.514;10.482;2022-09-21T05:23:39;6.20;99.90
23683;DHT22;24897;53.514;10.482;2022-09-21T05:26:24;6.30;99.90
23683;DHT22;24897;53.514;10.482;2022-09-21T05:29:08;6.70;99.90
23683;DHT22;24897;53.514;10.482;2022-09-21T05:38:21;6.40;99.90
23683;DHT22;24897;53.514;10.482;2022-09-21T05:41:06;6.50;99.90
23683;DHT22;24897;53.514;10.482;2022-09-21T05:43:51;6.90;99.90
23683;DHT22;24897;53.514;10.482;2022-09-21T05:46:41;6.70;99.90
23683;DHT22;24897;53.514;10.482;2022-09-21T06:04:01;7.00;99.90
23683;DHT22;24897;53.514;10.482;2022-09-21T06:06:46;7.30;99.90
23683;DHT22;24897;53.514;10.482;2022-09-21T06:12:16;7.50;99.90
23683;DHT22;24897;53.514;10.482;2022-09-21T06:15:00;7.50;99.90
23683;DHT22;24897;53.514;10.482;2022-09-21T06:17:45;7.70;99.90
23683;DHT22;24897;53.514;10.482;2022-09-21T06:20:29;7.80;99.90
23683;DHT22;24897;53.514;10.482;2022-09-21T06:23:13;8.10;99.90
23683;DHT22;24897;53.514;10.482;2022-09-21T06:25:58;8.20;99.90
23683;DHT22;24897;53.514;10.482;2022-09-21T06:28:43;8.20;99.90
23683;DHT22;24897;53.514;10.482;2022-09-21T06:31:27;8.30;99.90
23683;DHT22;24897;53.514;10.482;2022-09-21T06:34:11;8.40;99.90
23683;DHT22;24897;53.514;10.482;2022-09-21T06:36:56;8.50;99.90
23683;DHT22;24897;53.514;10.482;2022-09-21T06:39:40;8.70;99.90
23683;DHT22;24897;53.514;10.482;2022-09-21T06:42:26;8.70;99.90
23683;DHT22;24897;53.514;10.482;2022-09-21T06:45:10;8.80;99.90
23683;DHT22;24897;53.514;10.482;2022-09-21T06:47:55;9.00;99.90
23683;DHT22;24897;53.514;10.482;2022-09-21T06:50:39;9.10;99.90
23683;DHT22;24897;53.514;10.482;2022-09-21T06:53:24;9.30;99.90
23683;DHT22;24897;53.514;10.482;2022-09-21T06:56:10;9.40;99.90
23683;DHT22;24897;53.514;10.482;2022-09-21T06:58:55;9.50;99.90
23683;DHT22;24897;53.514;10.482;2022-09-21T07:01:39;9.70;99.90
23683;DHT22;24897;53.514;10.482;2022-09-21T07:04:23;9.70;99.90
23683;DHT22;24897;53.514;10.482;2022-09-21T07:07:07;10.00;99.90
23683;DHT22;24897;53.514;10.482;2022-09-21T07:12:36;10.30;99.90
23683;DHT22;24897;53.514;10.482;2022-09-21T07:15:20;10.40;99.90
23683;DHT22;24897;53.514;10.482;2022-09-21T07:18:11;10.60;99.90
23683;DHT22;24897;53.514;10.482;2022-09-21T07:20:56;10.80;99.90
23683;DHT22;24897;53.514;10.482;2022-09-21T07:23:40;10.90;99.90
23683;DHT22;24897;53.514;10.482;2022-09-21T07:26:25;11.00;99.90
23683;DHT22;24897;53.514;10.482;2022-09-21T07:29:09;11.10;99.90
23683;DHT22;24897;53.514;10.482;2022-09-21T07:31:54;11.40;99.90
23683;DHT22;24897;53.514;10.482;2022-09-21T07:34:38;11.40;99.90
23683;DHT22;24897;53.514;10.482;2022-09-21T07:37:23;11.60;99.90
23683;DHT22;24897;53.514;10.482;2022-09-21T07:40:08;11.70;99.90
23683;DHT22;24897;53.514;10.482;2022-09-21T07:42:57;12.00;99.90
23683;DHT22;24897;53.514;10.482;2022-09-21T07:45:41;12.10;99.90
23683;DHT22;24897;53.514;10.482;2022-09-21T07:48:25;12.30;99.90
23683;DHT22;24897;53.514;10.482;2022-09-21T07:51:12;12.80;99.90
23683;DHT22;24897;53.514;10.482;2022-09-21T07:53:56;13.20;99.90
23683;DHT22;24897;53.514;10.482;2022-09-21T07:56:41;14.00;99.90
23683;DHT22;24897;53.514;10.482;2022-09-21T07:59:25;15.30;99.90
23683;DHT22;24897;53.514;10.482;2022-09-21T08:02:11;16.30;99.90
23683;DHT22;24897;53.514;10.482;2022-09-21T08:04:55;17.60;99.90
23683;DHT22;24897;53.514;10.482;2022-09-21T08:07:40;19.00;99.90
23683;DHT22;24897;53.514;10.482;2022-09-21T08:10:25;19.50;99.90
23683;DHT22;24897;53.514;10.482;2022-09-21T08:13:13;20.20;99.90
23683;DHT22;24897;53.514;10.482;2022-09-21T08:15:58;21.00;99.90
23683;DHT22;24897;53.514;10.482;2022-09-21T08:18:42;21.20;99.90
23683;DHT22;24897;53.514;10.482;2022-09-21T08:21:27;21.30;99.90
23683;DHT22;24897;53.514;10.482;2022-09-21T08:24:11;21.50;99.90
23683;DHT22;24897;53.514;10.482;2022-09-21T08:26:55;21.60;99.90
23683;DHT22;24897;53.514;10.482;2022-09-21T08:29:40;21.50;99.90
23683;DHT22;24897;53.514;10.482;2022-09-21T08:32:25;21.50;99.90
23683;DHT22;24897;53.514;10.482;2022-09-21T08:35:08;21.80;99.90
23683;DHT22;24897;53.514;10.482;2022-09-21T08:37:53;21.80;99.90
23683;DHT22;24897;53.514;10.482;2022-09-21T08:40:39;21.60;99.90
23683;DHT22;24897;53.514;10.482;2022-09-21T08:43:38;21.60;99.90
23683;DHT22;24897;53.514;10.482;2022-09-21T08:46:27;21.50;99.90
23683;DHT22;24897;53.514;10.482;2022-09-21T08:49:16;21.60;99.90
23683;DHT22;24897;53.514;10.482;2022-09-21T08:52:06;21.30;99.90
23683;DHT22;24897;53.514;10.482;2022-09-21T08:55:02;21.30;99.90
23683;DHT22;24897;53.514;10.482;2022-09-21T08:57:48;22.10;99.90
23683;DHT22;24897;53.514;10.482;2022-09-21T09:00:35;22.70;99.90
23683;DHT22;24897;53.514;10.482;2022-09-21T09:03:28;22.60;99.90
23683;DHT22;24897;53.514;10.482;2022-09-21T09:10:30;22.50;99.90
23683;DHT22;24897;53.514;10.482;2022-09-21T09:13:45;22.80;99.90
23683;DHT22;24897;53.514;10.482;2022-09-21T09:23:19;22.00;99.90
23683;DHT22;24897;53.514;10.482;2022-09-21T09:26:09;20.50;99.90
23683;DHT22;24897;53.514;10.482;2022-09-21T09:29:43;19.60;99.90
23683;DHT22;24897;53.514;10.482;2022-09-21T09:32:16;19.80;99.90
23683;DHT22;24897;53.514;10.482;2022-09-21T09:35:23;20.50;99.90
23683;DHT22;24897;53.514;10.482;2022-09-21T09:38:27;20.50;99.90
23683;DHT22;24897;53.514;10.482;2022-09-21T09:41:37;20.40;99.90
23683;DHT22;24897;53.514;10.482;2022-09-21T09:50:31;22.30;99.90
23683;DHT22;24897;53.514;10.482;2022-09-21T09:53:19;22.80;99.90
23683;DHT22;24897;53.514;10.482;2022-09-21T09:56:04;22.80;99.90
23683;DHT22;24897;53.514;10.482;2022-09-21T09:58:52;22.70;99.90
23683;DHT22;24897;53.514;10.482;2022-09-21T10:01:39;21.90;99.90
23683;DHT22;24897;53.514;10.482;2022-09-21T10:04:24;22.50;99.90
23683;DHT22;24897;53.514;10.482;2022-09-21T10:07:17;22.40;99.90
23683;DHT22;24897;53.514;10.482;2022-09-21T10:10:20;22.40;99.90
23683;DHT22;24897;53.514;10.482;2022-09-21T10:19:00;23.50;99.90
23683;DHT22;24897;53.514;10.482;2022-09-21T10:21:44;23.60;99.90
23683;DHT22;24897;53.514;10.482;2022-09-21T10:24:32;23.90;99.90
23683;DHT22;24897;53.514;10.482;2022-09-21T10:27:28;24.00;99.90
23683;DHT22;24897;53.514;10.482;2022-09-21T10:33:20;22.20;99.90
23683;DHT22;24897;53.514;10.482;2022-09-21T10:36:27;22.00;99.90
23683;DHT22;24897;53.514;10.482;2022-09-21T10:39:22;22.40;99.90
23683;DHT22;24897;53.514;10.482;2022-09-21T10:42:11;22.90;99.90
23683;DHT22;24897;53.514;10.482;2022-09-21T10:45:17;22.50;99.90
23683;DHT22;24897;53.514;10.482;2022-09-21T10:50:50;22.80;99.90
23683;DHT22;24897;53.514;10.482;2022-09-21T10:53:35;23.30;99.90
23683;DHT22;24897;53.514;10.482;2022-09-21T10:56:20;23.50;99.90
23683;DHT22;24897;53.514;10.482;2022-09-21T10:59:23;23.90;99.90
23683;DHT22;24897;53.514;10.482;2022-09-21T11:02:37;23.70;99.90
23683;DHT22;24897;53.514;10.482;2022-09-21T11:05:33;23.30;99.90
23683;DHT22;24897;53.514;10.482;2022-09-21T11:08:32;23.40;99.90
23683;DHT22;24897;53.514;10.482;2022-09-21T11:14:41;23.70;99.90
23683;DHT22;24897;53.514;10.482;2022-09-21T11:17:38;23.80;99.90
23683;DHT22;24897;53.514;10.482;2022-09-21T11:20:41;23.60;99.90
23683;DHT22;24897;53.514;10.482;2022-09-21T11:26:36;23.30;99.90
23683;DHT22;24897;53.514;10.482;2022-09-21T11:30:12;23.10;99.90
23683;DHT22;24897;53.514;10.482;2022-09-21T11:45:52;22.80;99.90
23683;DHT22;24897;53.514;10.482;2022-09-21T11:48:53;22.80;99.90
23683;DHT22;24897;53.514;10.482;2022-09-21T12:04:39;22.30;99.90
23683;DHT22;24897;53.514;10.482;2022-09-21T12:16:21;23.10;99.90
23683;DHT22;24897;53.514;10.482;2022-09-21T12:19:19;23.10;99.90
23683;DHT22;24897;53.514;10.482;2022-09-21T12:22:28;22.90;99.90
23683;DHT22;24897;53.514;10.482;2022-09-21T12:25:26;22.80;99.90
23683;DHT22;24897;53.514;10.482;2022-09-21T12:28:21;22.60;99.90
23683;DHT22;24897;53.514;10.482;2022-09-21T12:31:32;22.50;99.90
23683;DHT22;24897;53.514;10.482;2022-09-21T12:34:21;22.60;99.90
23683;DHT22;24897;53.514;10.482;2022-09-21T12:37:31;22.80;99.90
23683;DHT22;24897;53.514;10.482;2022-09-21T12:40:30;22.80;99.90
23683;DHT22;24897;53.514;10.482;2022-09-21T12:43:38;22.60;99.90
23683;DHT22;24897;53.514;10.482;2022-09-21T12:46:37;21.60;99.90
23683;DHT22;24897;53.514;10.482;2022-09-21T12:49:27;21.40;99.90
23683;DHT22;24897;53.514;10.482;2022-09-21T12:52:23;21.60;99.90
23683;DHT22;24897;53.514;10.482;2022-09-21T12:55:34;21.70;99.90
23683;DHT22;24897;53.514;10.482;2022-09-21T13:10:16;19.90;99.90
23683;DHT22;24897;53.514;10.482;2022-09-21T13:13:02;19.90;99.90
23683;DHT22;24897;53.514;10.482;2022-09-21T13:15:47;19.30;99.90
23683;DHT22;24897;53.514;10.482;2022-09-21T13:18:37;18.80;99.90
23683;DHT22;24897;53.514;10.482;2022-09-21T13:21:28;18.80;99.90
23683;DHT22;24897;53.514;10.482;2022-09-21T13:24:27;18.70;99.90
23683;DHT22;24897;53.514;10.482;2022-09-21T13:27:12;19.20;99.90
23683;DHT22;24897;53.514;10.482;2022-09-21T13:36:47;21.00;99.90
23683;DHT22;24897;53.514;10.482;2022-09-21T13:39:15;21.50;99.90
23683;DHT22;24897;53.514;10.482;2022-09-21T13:48:21;22.50;99.90
23683;DHT22;24897;53.514;10.482;2022-09-21T13:51:13;22.60;99.90
23683;DHT22;24897;53.514;10.482;2022-09-21T13:54:00;22.50;99.90
23683;DHT22;24897;53.514;10.482;2022-09-21T13:56:46;22.50;99.90
23683;DHT22;24897;53.514;10.482;2022-09-21T13:59:32;22.40;99.90
23683;DHT22;24897;53.514;10.482;2022-09-21T14:02:30;22.10;99.90
23683;DHT22;24897;53.514;10.482;2022-09-21T14:05:45;22.00;99.90
23683;DHT22;24897;53.514;10.482;2022-09-21T14:08:34;21.70;99.90
23683;DHT22;24897;53.514;10.482;2022-09-21T14:14:35;21.30;99.90
23683;DHT22;24897;53.514;10.482;2022-09-21T14:17:38;21.10;99.90
23683;DHT22;24897;53.514;10.482;2022-09-21T14:20:32;20.80;99.90
23683;DHT22;24897;53.514;10.482;2022-09-21T14:29:15;20.30;99.90
23683;DHT22;24897;53.514;10.482;2022-09-21T14:32:10;20.20;99.90
23683;DHT22;24897;53.514;10.482;2022-09-21T14:35:00;20.20;99.90
23683;DHT22;24897;53.514;10.482;2022-09-21T14:40:45;20.10;99.90
23683;DHT22;24897;53.514;10.482;2022-09-21T14:43:33;20.00;99.90
23683;DHT22;24897;53.514;10.482;2022-09-21T14:46:40;19.90;99.90
23683;DHT22;24897;53.514;10.482;2022-09-21T15:02:20;20.00;99.90
23683;DHT22;24897;53.514;10.482;2022-09-21T15:05:25;20.00;99.90
23683;DHT22;24897;53.514;10.482;2022-09-21T15:11:29;19.80;99.90
23683;DHT22;24897;53.514;10.482;2022-09-21T15:17:25;19.80;99.90
23683;DHT22;24897;53.514;10.482;2022-09-21T15:20:16;19.80;99.90
23683;DHT22;24897;53.514;10.482;2022-09-21T15:23:01;19.70;99.90
23683;DHT22;24897;53.514;10.482;2022-09-21T15:26:03;19.80;99.90
23683;DHT22;24897;53.514;10.482;2022-09-21T15:28:57;19.60;99.90
23683;DHT22;24897;53.514;10.482;2022-09-21T15:31:41;19.70;99.90
23683;DHT22;24897;53.514;10.482;2022-09-21T15:34:25;19.60;99.90
23683;DHT22;24897;53.514;10.482;2022-09-21T15:37:15;19.40;99.90
23683;DHT22;24897;53.514;10.482;2022-09-21T15:40:13;19.30;99.90
23683;DHT22;24897;53.514;10.482;2022-09-21T15:43:02;19.20;99.90
23683;DHT22;24897;53.514;10.482;2022-09-21T15:48:37;19.10;99.90
23683;DHT22;24897;53.514;10.482;2022-09-21T15:51:31;19.00;99.90
23683;DHT22;24897;53.514;10.482;2022-09-21T15:54:27;18.80;99.90
23683;DHT22;24897;53.514;10.482;2022-09-21T15:57:33;18.70;99.90
23683;DHT22;24897;53.514;10.482;2022-09-21T16:00:23;18.60;99.90
23683;DHT22;24897;53.514;10.482;2022-09-21T16:03:20;18.50;99.90
23683;DHT22;24897;53.514;10.482;2022-09-21T16:09:38;18.50;99.90
23683;DHT22;24897;53.514;10.482;2022-09-21T16:15:17;18.50;99.90
23683;DHT22;24897;53.514;10.482;2022-09-21T16:18:04;18.40;99.90
23683;DHT22;24897;53.514;10.482;2022-09-21T16:20:49;18.30;99.90
23683;DHT22;24897;53.514;10.482;2022-09-21T16:23:33;18.30;99.90
23683;DHT22;24897;53.514;10.482;2022-09-21T16:26:27;18.20;99.90
23683;DHT22;24897;53.514;10.482;2022-09-21T16:29:22;18.10;99.90
23683;DHT22;24897;53.514;10.482;2022-09-21T16:35:27;17.70;99.90
23683;DHT22;24897;53.514;10.482;2022-09-21T16:38:14;17.40;99.90
23683;DHT22;24897;53.514;10.482;2022-09-21T16:41:00;17.20;99.90
23683;DHT22;24897;53.514;10.482;2022-09-21T16:43:45;17.10;99.90
23683;DHT22;24897;53.514;10.482;2022-09-21T16:46:30;16.90;99.90
23683;DHT22;24897;53.514;10.482;2022-09-21T16:49:16;16.70;99.90
23683;DHT22;24897;53.514;10.482;2022-09-21T16:52:05;16.50;99.90
23683;DHT22;24897;53.514;10.482;2022-09-21T16:54:50;16.30;99.90
23683;DHT22;24897;53.514;10.482;2022-09-21T16:57:34;16.10;99.90
23683;DHT22;24897;53.514;10.482;2022-09-21T17:00:19;15.90;99.90
23683;DHT22;24897;53.514;10.482;2022-09-21T17:03:04;15.80;99.90
23683;DHT22;24897;53.514;10.482;2022-09-21T17:05:50;15.70;99.90
23683;DHT22;24897;53.514;10.482;2022-09-21T17:08:34;15.60;99.90
23683;DHT22;24897;53.514;10.482;2022-09-21T17:11:20;15.40;99.90
23683;DHT22;24897;53.514;10.482;2022-09-21T17:14:04;15.40;99.90
23683;DHT22;24897;53.514;10.482;2022-09-21T17:16:55;15.30;99.90
23683;DHT22;24897;53.514;10.482;2022-09-21T17:19:40;15.20;99.90
23683;DHT22;24897;53.514;10.482;2022-09-21T17:22:25;15.10;99.90
23683;DHT22;24897;53.514;10.482;2022-09-21T17:25:09;14.90;99.90
23683;DHT22;24897;53.514;10.482;2022-09-21T17:27:53;14.80;99.90
23683;DHT22;24897;53.514;10.482;2022-09-21T17:30:41;14.70;99.90
23683;DHT22;24897;53.514;10.482;2022-09-21T17:33:25;14.70;99.90
23683;DHT22;24897;53.514;10.482;2022-09-21T17:36:12;14.70;99.90
23683;DHT22;24897;53.514;10.482;2022-09-21T17:38:57;14.50;99.90
23683;DHT22;24897;53.514;10.482;2022-09-21T17:42:11;14.40;99.90
23683;DHT22;24897;53.514;10.482;2022-09-21T17:48:16;14.10;99.90
23683;DHT22;24897;53.514;10.482;2022-09-21T17:51:02;13.90;99.90
23683;DHT22;24897;53.514;10.482;2022-09-21T17:53:46;13.70;99.90
23683;DHT22;24897;53.514;10.482;2022-09-21T17:56:47;13.60;99.90
23683;DHT22;24897;53.514;10.482;2022-09-21T17:59:35;12.90;99.90
23683;DHT22;24897;53.514;10.482;2022-09-21T18:02:25;13.60;99.90
23683;DHT22;24897;53.514;10.482;2022-09-21T18:05:24;13.50;99.90
23683;DHT22;24897;53.514;10.482;2022-09-21T18:08:09;13.70;99.90
23683;DHT22;24897;53.514;10.482;2022-09-21T18:11:27;13.70;99.90
23683;DHT22;24897;53.514;10.482;2022-09-21T18:17:36;13.40;99.90
23683;DHT22;24897;53.514;10.482;2022-09-21T18:29:20;13.10;99.90
23683;DHT22;24897;53.514;10.482;2022-09-21T18:32:29;13.10;99.90
23683;DHT22;24897;53.514;10.482;2022-09-21T18:47:21;12.90;99.90
23683;DHT22;24897;53.514;10.482;2022-09-21T18:50:44;13.00;99.90
23683;DHT22;24897;53.514;10.482;2022-09-21T18:53:35;12.70;99.90
23683;DHT22;24897;53.514;10.482;2022-09-21T18:56:26;12.40;99.90
23683;DHT22;24897;53.514;10.482;2022-09-21T18:59:13;12.90;99.90
23683;DHT22;24897;53.514;10.482;2022-09-21T19:01:59;12.10;99.90
23683;DHT22;24897;53.514;10.482;2022-09-21T19:04:44;12.80;99.90
23683;DHT22;24897;53.514;10.482;2022-09-21T19:07:46;12.80;99.90
23683;DHT22;24897;53.514;10.482;2022-09-21T19:10:35;12.80;99.90
23683;DHT22;24897;53.514;10.482;2022-09-21T19:25:47;12.70;99.90
23683;DHT22;24897;53.514;10.482;2022-09-21T19:28:58;12.70;99.90
23683;DHT22;24897;53.514;10.482;2022-09-21T19:31:46;12.40;99.90
23683;DHT22;24897;53.514;10.482;2022-09-21T19:37:15;12.90;99.90
23683;DHT22;24897;53.514;10.482;2022-09-21T19:46:15;12.80;99.90
23683;DHT22;24897;53.514;10.482;2022-09-21T19:49:14;12.60;99.90
23683;DHT22;24897;53.514;10.482;2022-09-21T19:52:03;12.80;99.90
23683;DHT22;24897;53.514;10.482;2022-09-21T19:54:48;12.70;99.90
23683;DHT22;24897;53.514;10.482;2022-09-21T19:57:51;12.60;99.90
23683;DHT22;24897;53.514;10.482;2022-09-21T20:00:55;12.50;99.90
23683;DHT22;24897;53.514;10.482;2022-09-21T20:03:43;12.50;99.90
23683;DHT22;24897;53.514;10.482;2022-09-21T20:06:39;12.30;99.90
23683;DHT22;24897;53.514;10.482;2022-09-21T20:09:31;13.00;99.90
23683;DHT22;24897;53.514;10.482;2022-09-21T20:12:27;12.60;99.90
23683;DHT22;24897;53.514;10.482;2022-09-21T20:15:19;12.40;99.90
23683;DHT22;24897;53.514;10.482;2022-09-21T20:18:17;12.40;99.90
23683;DHT22;24897;53.514;10.482;2022-09-21T20:21:02;12.60;99.90
23683;DHT22;24897;53.514;10.482;2022-09-21T20:23:52;12.50;99.90
23683;DHT22;24897;53.514;10.482;2022-09-21T20:26:41;12.40;99.90
23683;DHT22;24897;53.514;10.482;2022-09-21T20:29:26;12.40;99.90
23683;DHT22;24897;53.514;10.482;2022-09-21T20:32:10;12.30;99.90
23683;DHT22;24897;53.514;10.482;2022-09-21T20:34:54;12.20;99.90
23683;DHT22;24897;53.514;10.482;2022-09-21T20:40:23;12.40;99.90
23683;DHT22;24897;53.514;10.482;2022-09-21T20:45:54;12.00;99.90
23683;DHT22;24897;53.514;10.482;2022-09-21T20:48:40;11.60;99.90
23683;DHT22;24897;53.514;10.482;2022-09-21T20:51:26;12.10;99.90
23683;DHT22;24897;53.514;10.482;2022-09-21T20:54:11;10.50;99.90
23683;DHT22;24897;53.514;10.482;2022-09-21T20:56:55;11.60;99.90
23683;DHT22;24897;53.514;10.482;2022-09-21T20:59:39;11.50;99.90
23683;DHT22;24897;53.514;10.482;2022-09-21T21:02:24;11.60;99.90
23683;DHT22;24897;53.514;10.482;2022-09-21T21:05:09;11.50;99.90
23683;DHT22;24897;53.514;10.482;2022-09-21T21:07:55;11.40;99.90
23683;DHT22;24897;53.514;10.482;2022-09-21T21:10:43;11.60;99.90
23683;DHT22;24897;53.514;10.482;2022-09-21T21:13:29;11.60;99.90
23683;DHT22;24897;53.514;10.482;2022-09-21T21:16:14;11.60;99.90
23683;DHT22;24897;53.514;10.482;2022-09-21T21:18:58;11.40;99.90
23683;DHT22;24897;53.514;10.482;2022-09-21T21:21:43;11.50;99.90
23683;DHT22;24897;53.514;10.482;2022-09-21T21:24:27;11.30;99.90
23683;DHT22;24897;53.514;10.482;2022-09-21T21:27:24;11.60;99.90
23683;DHT22;24897;53.514;10.482;2022-09-21T21:30:09;11.70;99.90
23683;DHT22;24897;53.514;10.482;2022-09-21T21:32:55;11.40;99.90
23683;DHT22;24897;53.514;10.482;2022-09-21T21:38:26;11.20;99.90
23683;DHT22;24897;53.514;10.482;2022-09-21T21:41:10;10.80;99.90
23683;DHT22;24897;53.514;10.482;2022-09-21T21:43:58;10.50;99.90
23683;DHT22;24897;53.514;10.482;2022-09-21T21:46:42;11.10;99.90
23683;DHT22;24897;53.514;10.482;2022-09-21T21:49:26;11.10;99.90
23683;DHT22;24897;53.514;10.482;2022-09-21T21:52:11;11.10;99.90
23683;DHT22;24897;53.514;10.482;2022-09-21T21:54:56;11.10;99.90
23683;DHT22;24897;53.514;10.482;2022-09-21T21:57:40;11.00;99.90
23683;DHT22;24897;53.514;10.482;2022-09-21T22:00:24;10.80;99.90
23683;DHT22;24897;53.514;10.482;2022-09-21T22:03:08;10.80;99.90
23683;DHT22;24897;53.514;10.482;2022-09-21T22:05:54;10.70;99.90
23683;DHT22;24897;53.514;10.482;2022-09-21T22:08:39;10.70;99.90
23683;DHT22;24897;53.514;10.482;2022-09-21T22:11:25;10.50;99.90
23683;DHT22;24897;53.514;10.482;2022-09-21T22:14:10;10.80;99.90